Tiempo atmosférico en la estación meteorológica de Lugo Aeropuerto, Lugo (445 m.)



Fecha
DESCASC
Temp. máxima en grados centígrados (hora)
DESCASC
Temp. mínima en grados centígrados (hora)
DESCASC
Temp. media en grados centígrados
DESCASC
Racha de viento máxima en m/sg (hora)
DESCASC
Velocidad máxima media en intervalos de 10 minutos(hora)
DESCASC
Precipitaciones diarias en mm
DESCASC
Precipitaciones de 00:00 a 06:00 en mm
DESCASC
Precipitaciones de 06:00 a 12:00 en mm
DESCASC
Precipitaciones de 12:00 a 18:00 en mm
DESCASC
Precipitaciones de 18:00 a 24:00 en mm
DESCASC
19-05-2019 16.3 (15:30) 3.5 (03:10) 9.9 8.06 (17:20) 4.17 (20:20) 0 0 0 0 0
18-05-2019 11.7 (16:00) 5.7 (01:40) 8.7 8.06 (14:40) 3.89 (10:50) 1.2 0.4 0.6 0.2 0
17-05-2019 13.3 (16:50) 6.2 (23:59) 9.8 10.28 (12:50) 4.17 (17:10) 4.8 1.4 1.4 2 0
16-05-2019 12.7 (13:20) 9.4 (00:00) 11 6.94 (20:00) 3.33 (17:50) 5.4 0 0 4.2 1.2
15-05-2019 29.9 (16:30) 6.6 (00:00) 18.2 6.67 (18:30) 3.33 (18:30) 0 0 0 0 0
14-05-2019 29.6 (17:30) 5.3 (00:00) 17.5 5.28 (19:20) 2.78 (19:20) 0 0 0 0 0
13-05-2019 23.7 (15:20) 7.7 (00:00) 15.7 6.67 (16:30) 3.61 (15:50) 0 0 0 0 0
12-05-2019 24 (15:20) 5.8 (00:00) 14.9 6.67 (19:00) 3.61 (19:20) 0 0 0 0 0
11-05-2019 20.3 (16:00) 8.2 (00:00) 14.2 8.06 (21:10) 3.61 (17:40) 0 0 0 0 0
10-05-2019 20.8 (16:50) 11.9 (00:00) 16.3 13.89 (13:00) 8.33 (13:00) 1 0.8 0.2 0 0
09-05-2019 -- (--) -- (--) -- -- (--) -- (--) -- -- -- 0.8 13.2
08-05-2019 14.8 (15:10) 9.8 (00:00) 12.3 17.78 (18:40) 10.28 (18:40) 5.2 4.6 0 0.6 0
07-05-2019 17.4 (17:40) 11.4 (00:00) 14.4 15.28 (21:20) 7.5 (21:10) 1 0.6 0 0 0.4
06-05-2019 20.9 (17:50) 2.9 (00:00) 11.9 6.39 (18:00) 3.06 (14:50) 0.2 0 0 0 0.2
05-05-2019 19.9 (15:30) 4.5 (00:00) 12.2 6.67 (15:00) 3.89 (17:40) 0 0 0 0 0
04-05-2019 19.2 (15:10) 2.2 (00:00) 10.7 9.72 (18:40) 5.28 (19:00) 0 0 0 0 0
03-05-2019 17.5 (17:20) 4.5 (00:00) 11 8.89 (04:20) 4.17 (11:10) 0 0 0 0 0
02-05-2019 15.9 (15:50) 6.9 (06:20) 11.4 10.83 (13:10) 5 (13:10) 0 0 0 0 0
01-05-2019 16 (15:20) 9.3 (00:00) 12.7 10.28 (17:10) 5.28 (15:20) 0 0 0 0 0
30-04-2019 22.2 (17:30) 6.6 (00:00) 14.4 6.39 (20:00) 3.33 (19:20) 0 0 0 0 0
29-04-2019 25.7 (17:30) 5.1 (00:00) 15.4 7.5 (18:20) 3.61 (18:40) 0 0 0 0 0
28-04-2019 23.2 (16:50) 7.4 (00:00) 15.3 6.94 (18:00) 3.89 (18:00) 0 0 0 0 0
27-04-2019 18.9 (17:50) 8.5 (00:00) 13.7 7.5 (22:40) 3.33 (22:30) 0 0 0 0 0
26-04-2019 13.1 (17:50) 5.8 (00:00) 9.5 9.17 (12:10) 5.28 (16:10) 2.2 2.2 0 0 0
25-04-2019 9 (12:30) 4.5 (00:00) 6.8 12.22 (13:30) 5.83 (11:40) 24 5.8 4 8.2 6
24-04-2019 10.8 (16:10) 4.8 (00:00) 7.8 14.17 (14:10) 7.5 (14:10) 12 0 0.4 4.2 7.4
23-04-2019 10.8 (12:00) 4.4 (00:00) 7.6 11.94 (13:30) 7.22 (13:20) 3.4 1.6 0 1.6 0.2

Gráficas

Temp. máximas Temp. mínimas Temp. medias Precipitaciones Rachas de viento máximas Velocidades máximas media en intervalos de 10 minutos

Datos horarios

Fecha y hora oficial Temperatura (ºC) Velocidad del viento (km/h) Dirección del viento Racha (km/h) Dirección de racha Precipitación (mm) Presión (hPa) Tendencia (hPa) Humedad (%)
2019-05-22 23:00:00 15.1 3 Sudoeste 7 Norte 0 967 1.7 74
2019-05-22 22:00:00 17.6 0 Calma 12 Nordeste 0 966.4 1.5 68
2019-05-22 21:00:00 20.5 5 Nordeste 15 Nordeste 0 965.7 0.9 60
2019-05-22 20:00:00 21 5 Nordeste 17 Nordeste 0 965.3 0.5 60
2019-05-22 19:00:00 24.2 6 Noroeste 12 Noroeste 0 964.9 -0.1 50
2019-05-22 18:00:00 24.5 6 Noroeste 16 Noroeste 0 964.8 -0.7 44
2019-05-22 17:00:00 25.1 7 Noroeste 18 Oeste 0 964.8 -1 41
2019-05-22 16:00:00 25.2 5 Noroeste 21 Sudoeste 0 965 -1.1 46
2019-05-22 15:00:00 24.2 6 Oeste 26 Oeste 0 965.5 -0.8 45
2019-05-22 14:00:00 23.5 6 Sudoeste 19 Sudoeste 0 965.8 -0.6 47
2019-05-22 13:00:00 21.3 8 Sudoeste 15 Oeste 0 966.1 -0.4 56
2019-05-22 12:00:00 16.3 4 Norte 12 Norte 0 966.3 0 76
2019-05-22 11:00:00 12.1 4 Nordeste 9 Nordeste 0 966.4 0.4 87
2019-05-22 10:00:00 8.2 3 Nordeste 5 Este 0 966.5 0.7 97
2019-05-22 09:00:00 6.9 3 Sudeste 6 Este 0 966.3 0.3 97
2019-05-22 08:00:00 6.4 0 Calma 4 Oeste 0 966 -0.3 97
2019-05-22 07:00:00 6.4 2 Sudoeste 5 Oeste 0 965.8 -0.6 94
2019-05-22 06:00:00 7.1 2 Sudoeste 6 Oeste 0 966 -0.8 96
2019-05-22 05:00:00 8 3 Sudoeste 6 Sudoeste 0 966.3 -0.5 96
2019-05-22 04:00:00 8.3 0 Calma 5 Sur 0 966.4 -0.5 97
2019-05-22 03:00:00 7.3 0 Calma 5 Oeste 0 966.8 -0.3 95
2019-05-22 02:00:00 7.5 2 Sur 4 Sur 0 966.8 -0.1 89
2019-05-22 01:00:00 8.4 2 Sudoeste 4 Sudoeste 0 966.9 0.5 88
2019-05-22 00:00:00 9.7 0 Calma 7 Noroeste 0 967.1 1.2 87
2019-05-21 23:00:00 10.7 2 Noroeste 13 Nordeste 0 966.9 1.5 86
2019-05-21 22:00:00 12.4 4 Nordeste 17 Nordeste 0 966.4 1.2 79
2019-05-21 21:00:00 14.6 5 Nordeste 19 Nordeste 0 965.9 0.8 72
2019-05-21 20:00:00 17.3 8 Nordeste 20 Nordeste 0 965.4 0.4 65
2019-05-21 19:00:00 19 8 Nordeste 22 Este 0 965.2 0.1 61
2019-05-21 18:00:00 19.8 13 Nordeste 23 Nordeste 0 965.1 0 55
2019-05-21 17:00:00 20.7 9 Nordeste 22 Nordeste 0 965 -0.3 52
2019-05-21 16:00:00 21.4 8 Nordeste 20 Nordeste 0 965.1 -0.4 55
2019-05-21 15:00:00 20.7 8 Nordeste 21 Este 0 965.1 -0.4 50
2019-05-21 14:00:00 20.1 10 Este 21 Este 0 965.3 -0.2 51
2019-05-21 13:00:00 19.5 8 Nordeste 19 Nordeste 0 965.5 0.1 49
2019-05-21 12:00:00 18.1 7 Noroeste 13 Nordeste 0 965.5 0.4 56
2019-05-21 11:00:00 15.9 4 Norte 10 Este 0 965.5 0.5 63
2019-05-21 10:00:00 13.3 3 Oeste 6 Noroeste 0 965.4 0.9 77
2019-05-21 09:00:00 10.5 0 Calma 4 Este 0 965.1 0.8 83
2019-05-21 08:00:00 6.8 2 Sur 5 Sur 0 965 0.9 94
2019-05-21 07:00:00 6.6 3 Este 6 Sudeste 0 964.5 0.3 93
2019-05-21 06:00:00 7.1 2 Sudoeste 4 Sudoeste 0 964.3 0.1 94
2019-05-21 05:00:00 6.3 3 Sudeste 5 Sudeste 0 964.1 -0.4 94
2019-05-21 04:00:00 6.3 2 Sudoeste 6 Sudeste 0 964.2 -0.2 91
2019-05-21 03:00:00 7.1 3 Sur 6 Sudeste 0 964.2 -0.3 89
2019-05-21 02:00:00 8 3 Sudeste 7 Oeste 0 964.5 0.5 89
2019-05-21 01:00:00 9.3 2 Sudoeste 6 Norte 0 964.4 1.1 84
2019-05-21 00:00:00 10.6 4 Norte 8 Norte 0 964.5 1.5 82
2019-05-20 23:00:00 11.6 2 Norte 8 Norte 0 964 1.4 79
2019-05-20 22:00:00 12.6 3 Norte 11 Nordeste 0 963.3 0.8 76
2019-05-20 21:00:00 14.9 3 Nordeste 15 Nordeste 0 963 0.7 69
2019-05-20 20:00:00 18 5 Norte 15 Nordeste 0 962.6 0.1 44
2019-05-20 19:00:00 18.3 4 Nordeste 11 Nordeste 0 962.5 -0.4 43
2019-05-20 18:00:00 17.9 6 Nordeste 14 Noroeste 0 962.3 -0.9 45
2019-05-20 17:00:00 18.2 5 Norte 14 Oeste 0 962.5 -0.9 39
2019-05-20 16:00:00 17.7 5 Norte 20 Oeste 0 962.9 -0.6 43
2019-05-20 15:00:00 16.1 4 Oeste 15 Oeste 0 963.2 -0.4 44
2019-05-20 14:00:00 15.4 6 Oeste 14 Norte 0 963.4 -0.4 57
2019-05-20 13:00:00 14.9 4 Sur 10 Nordeste 0 963.5 -0.4 57
2019-05-20 12:00:00 12.5 3 Sudeste 9 Este 0 963.6 0 68
2019-05-20 11:00:00 8.8 4 Nordeste 7 Noroeste 0 963.8 0.5 84
2019-05-20 10:00:00 6 0 Calma 7 Sudoeste 0 963.9 1.2 95
2019-05-20 09:00:00 3.8 0 Calma 4 Sudeste 0 963.6 1.2 97
2019-05-20 08:00:00 1.9 2 Nordeste 4 Nordeste 0 963.3 0.3 95
2019-05-20 07:00:00 1.8 2 Este 4 Sudeste 0 962.7 -0.4 93
2019-05-20 06:00:00 2.4 0 Calma 4 Sudeste 0 962.4 -1.1 93
2019-05-20 05:00:00 2.9 0 Calma 3 Sudoeste 0 963 -0.9 92
2019-05-20 04:00:00 3.6 2 Sudoeste 6 Sur 0 963.1 -1.1 94
2019-05-20 03:00:00 3.8 2 Sur 5 Sudeste 0 963.5 -0.8 90
2019-05-20 02:00:00 4.6 2 Sudeste 5 Sudeste 0 963.9 -0.4 91
2019-05-20 01:00:00 5.5 3 Sudoeste 6 Noroeste 0 964.2 0.4 91
2019-05-20 00:00:00 6.5 2 Noroeste 7 Nordeste 0 964.3 0.9 89
2019-05-19 23:00:00 7.6 4 Nordeste 9 Este 0 964.3 1 85
2019-05-19 22:00:00 9.2 3 Norte 16 Nordeste 0 963.8 0.6 77
2019-05-19 21:00:00 11 9 Nordeste 25 Nordeste 0 963.4 0.3 68
2019-05-19 20:00:00 12.7 12 Nordeste 26 Nordeste 0 963.3 0.1 66
2019-05-19 19:00:00 13.9 13 Nordeste 25 Este 0 963.2 -0.2 62
2019-05-19 18:00:00 14.8 8 Nordeste 29 Nordeste 0 963.1 -0.6 61
2019-05-19 17:00:00 15.6 11 Nordeste 22 Nordeste 0 963.2 -0.9 61
2019-05-19 16:00:00 15 6 Nordeste 22 Este 0 963.4 -0.8 50
2019-05-19 15:00:00 15.4 5 Nordeste 13 Nordeste 0 963.7 -0.4 49
2019-05-19 14:00:00 14.3 6 Noroeste 12 Norte 0 964.1 -0.1 49
2019-05-19 13:00:00 13.8 4 Noroeste 14 Sudoeste 0 964.2 0.3 50
2019-05-19 12:00:00 12.5 6 Nordeste 11 Nordeste 0 964.1 0.5 63
2019-05-19 11:00:00 10.4 4 Oeste 17 Oeste 0 964.2 0.9 72
2019-05-19 10:00:00 10.9 3 Norte 7 Noroeste 0 963.9 0.3 75
2019-05-19 09:00:00 8.4 3 Sudoeste 6 Sudoeste 0 963.6 0.1 85
2019-05-19 08:00:00 5.6 3 Sur 8 Sudeste 0 963.3 -0.2 96
2019-05-19 07:00:00 5.2 0 Calma 4 Noroeste 0 963.6 -0.1 95
2019-05-19 06:00:00 5.7 3 Noroeste 5 Noroeste 0 963.5 -0.4 97
2019-05-19 05:00:00 5.5 0 Calma 5 Sudeste 0 963.5 -0.5 97
2019-05-19 04:00:00 4.3 3 Sur 7 Sur 0 963.7 -0.4 97
2019-05-19 03:00:00 3.6 3 Sudeste 10 Sudeste 0 963.9 -0.4 91
2019-05-19 02:00:00 4.4 4 Sudeste 7 Sur 0 964 -0.3 93
2019-05-19 01:00:00 5.4 3 Sur 6 Sur 0 964.1 0.4 91
2019-05-19 00:00:00 6.3 3 Sur 5 Sur 0 964.3 0.7 91
2019-05-18 23:00:00 8 3 Sudoeste 6 Sudoeste 0 964.3 0.9 87
2019-05-18 22:00:00 9.2 2 Sudeste 4 Sudeste 0 963.7 0.4 82
2019-05-18 21:00:00 10.6 2 Nordeste 10 Nordeste 0 963.6 0.7 75
2019-05-18 20:00:00 11 8 Noroeste 19 Norte 0 963.4 0.7 64
2019-05-18 19:00:00 11.6 8 Norte 21 Noroeste 0 963.3 0.4 60
2019-05-18 18:00:00 11.7 8 Noroeste 19 Noroeste 0 962.9 0 63
2019-05-18 17:00:00 11.6 6 Noroeste 23 Noroeste 0 962.7 0.1 66
2019-05-18 16:00:00 11.6 9 Noroeste 24 Noroeste 0 962.9 0 67
2019-05-18 15:00:00 11.2 5 Noroeste 29 Noroeste 0 962.9 0.1 73
2019-05-18 14:00:00 11.1 7 Noroeste 20 Norte 0.2 962.6 -0.1 73
2019-05-18 13:00:00 10.9 4 Noroeste 22 Noroeste 0 962.9 0.3 80
2019-05-18 12:00:00 10.5 9 Oeste 22 Sudoeste 0.2 962.8 0.4 81
2019-05-18 11:00:00 9.4 10 Oeste 21 Sudoeste 0 962.7 0.6 84
2019-05-18 10:00:00 8.8 13 Sudoeste 23 Oeste 0 962.6 0.6 87
2019-05-18 09:00:00 7.2 8 Sudoeste 15 Sudoeste 0.2 962.4 0.4 94
2019-05-18 08:00:00 6.5 9 Sudoeste 15 Oeste 0.2 962.1 0 95
2019-05-18 07:00:00 6.4 6 Sudoeste 15 Oeste 0 962 -0.4 94
2019-05-18 06:00:00 6.6 10 Oeste 15 Oeste 0.2 962 -0.9 94
2019-05-18 05:00:00 6.6 8 Sudoeste 13 Sudoeste 0.2 962.1 -1.2 93
2019-05-18 04:00:00 6.6 6 Sudoeste 15 Sudoeste 0 962.4 -0.9 93
2019-05-18 03:00:00 6.4 5 Sudoeste 12 Sudoeste 0 962.9 -0.7 93
2019-05-18 02:00:00 5.9 3 Sudoeste 15 Sudoeste 0 963.3 -0.3 93
2019-05-18 01:00:00 6.3 4 Sudoeste 9 Oeste 0 963.3 0.1 91
2019-05-18 00:00:00 6.2 3 Sur 10 Oeste 0 963.6 0.3 88
2019-05-17 23:00:00 7.3 5 Oeste 13 Oeste 0 963.6 0.8 86
2019-05-17 22:00:00 7.9 4 Oeste 26 Oeste 0 963.2 -0.2 81
2019-05-17 21:00:00 10.1 7 Oeste 23 Noroeste 0 963.3 0.2 73
2019-05-17 20:00:00 10.8 8 Noroeste 29 Noroeste 0 962.8 -0.1 71
2019-05-17 19:00:00 10.8 15 Noroeste 35 Noroeste 0 963.4 0.1 70
2019-05-17 18:00:00 10.5 9 Noroeste 36 Noroeste 0.6 963.1 -0.5 80
2019-05-17 17:00:00 12.9 11 Noroeste 37 Noroeste 0 962.9 -0.6 68
2019-05-17 16:00:00 12.1 6 Norte 17 Noroeste 0 963.3 -0.2 75
2019-05-17 15:00:00 10.2 6 Noroeste 27 Norte 0.4 963.6 0.5 79
2019-05-17 14:00:00 10.9 8 Noroeste 30 Noroeste 0.2 963.5 0.6 84
2019-05-17 13:00:00 10.4 6 Noroeste 37 Noroeste 0.8 963.5 1.2 85
2019-05-17 12:00:00 10.9 11 Noroeste 28 Noroeste 0 963.1 1 78
2019-05-17 11:00:00 9.9 8 Noroeste 21 Norte 0 962.9 1.2 85
2019-05-17 10:00:00 9.1 9 Noroeste 21 Noroeste 0.4 962.3 1 94
2019-05-17 09:00:00 8.7 4 Noroeste 16 Norte 0.2 962.1 0.8 95
2019-05-17 08:00:00 8.7 3 Oeste 12 Oeste 0.2 961.7 0.7 95
2019-05-17 07:00:00 8.6 4 Oeste 9 Oeste 0.6 961.3 0.3 95
2019-05-17 06:00:00 8.6 6 Oeste 15 Noroeste 0 961.3 0.3 95
2019-05-17 05:00:00 8.6 5 Noroeste 15 Noroeste 0 961 0.1 94
2019-05-17 04:00:00 8.9 6 Oeste 23 Noroeste 0 961 0 94
2019-05-17 03:00:00 8.9 5 Oeste 23 Norte 0 961 0 95
2019-05-17 02:00:00 9 5 Oeste 14 Noroeste 0.8 960.9 0.2 95
2019-05-17 01:00:00 9.2 5 Noroeste 17 Norte 0.6 961 0.4 94
2019-05-17 00:00:00 9.4 6 Oeste 25 Oeste 1 961 0.6 94
2019-05-16 23:00:00 9.8 8 Oeste 16 Oeste 0 960.7 0.3 90
2019-05-16 22:00:00 10 8 Oeste 16 Sudoeste 0 960.6 0.1 91
2019-05-16 21:00:00 10.6 9 Oeste 22 Noroeste 0 960.4 0.2 87
2019-05-16 20:00:00 11.6 8 Oeste 25 Noroeste 0 960.4 -0.1 84
2019-05-16 19:00:00 11.6 6 Oeste 25 Oeste 0.2 960.5 -0.2 90
2019-05-16 18:00:00 12 10 Oeste 20 Oeste 0 960.2 -1.1 90
2019-05-16 17:00:00 12.3 8 Oeste 13 Oeste 0.6 960.5 -1.1 89
2019-05-16 16:00:00 11.7 5 Sudoeste 15 Oeste 2.4 960.7 -0.7 90
2019-05-16 15:00:00 12.5 5 Oeste 21 Noroeste 1.2 961.3 0 91
2019-05-16 14:00:00 12.5 5 Oeste 20 Oeste 0 961.6 0.1 84
2019-05-16 13:00:00 12.5 7 Oeste 21 Sudoeste 0 961.4 -0.2 83
2019-05-16 12:00:00 12 7 Sudoeste 17 Sudoeste 0 961.3 -0.3 84
2019-05-16 11:00:00 11.5 5 Sudoeste 14 Sudoeste 0 961.5 -0.5 87
2019-05-16 10:00:00 11 5 Sudoeste 12 Oeste 0 961.6 0 85
2019-05-16 09:00:00 10.7 5 Sur 15 Sudoeste 0 961.6 0.3 84
2019-05-16 08:00:00 10.3 9 Oeste 17 Oeste 0 962 0.5 84
2019-05-16 07:00:00 10.3 6 Oeste 16 Oeste 0 961.6 -0.2 86
2019-05-16 06:00:00 10.6 5 Oeste 9 Oeste 0 961.3 -1 88
2019-05-16 05:00:00 10.7 5 Oeste 9 Oeste 0 961.5 -1.4 87
2019-05-16 04:00:00 10.8 4 Sudoeste 10 Oeste 0 961.8 -1.4 87
2019-05-16 03:00:00 11.1 6 Sudoeste 10 Oeste 0 962.3 -1.3 89
2019-05-16 02:00:00 11.2 6 Oeste 10 Oeste 0 962.9 -0.5 92
2019-05-16 01:00:00 11.6 4 Oeste 11 Noroeste 0 963.2 0.2 88
2019-05-16 00:00:00 12 5 Noroeste 14 Noroeste 0 963.6 1.5 88
2019-05-15 23:00:00 14.3 4 Noroeste 14 Noroeste 0 963.4 1.7 81
2019-05-15 22:00:00 18.5 5 Noroeste 12 Norte 0 963 1.2 66
2019-05-15 21:00:00 22.1 0 Calma 11 Noroeste 0 962.1 0.8 60
2019-05-15 20:00:00 24.5 4 Norte 17 Noroeste 0 961.7 0.6 44
2019-05-15 19:00:00 25.4 10 Noroeste 24 Noroeste 0 961.8 0.2 39
2019-05-15 18:00:00 28.5 6 Norte 18 Norte 0 961.3 -0.8 42
2019-05-15 17:00:00 29.6 4 Nordeste 14 Norte 0 961.1 -1.5 30
2019-05-15 16:00:00 29.1 6 Nordeste 17 Nordeste 0 961.6 -1 29
2019-05-15 15:00:00 28 5 Oeste 15 Noroeste 0 962.1 -0.9 39
2019-05-15 14:00:00 26.3 6 Noroeste 16 Noroeste 0 962.6 -0.8 38
2019-05-15 13:00:00 24.3 4 Noroeste 12 Norte 0 962.6 -0.8 53
2019-05-15 12:00:00 20.2 4 Oeste 10 Norte 0 963 -0.7 69
2019-05-15 11:00:00 16 5 Noroeste 9 Noroeste 0 963.4 0.5 80
2019-05-15 10:00:00 13.3 3 Nordeste 7 Este 0 963.4 0.4 86
2019-05-15 09:00:00 9.1 2 Noroeste 8 Noroeste 0 963.7 0.8 93
2019-05-15 08:00:00 7.3 0 Calma 6 Sudeste 0 962.9 -0.2 95
2019-05-15 07:00:00 6.8 3 Sudeste 5 Sudeste 0 963 -0.2 92
2019-05-15 06:00:00 7.3 0 Calma 3 Sur 0 962.9 -1 91
2019-05-15 05:00:00 8.3 0 Calma 6 Sudeste 0 963.1 -1 90
2019-05-15 04:00:00 9.3 3 Sudeste 5 Sudeste 0 963.2 -1.2 90
2019-05-15 03:00:00 10.2 3 Sudeste 5 Sudeste 0 963.9 -0.6 88
2019-05-15 02:00:00 11.3 3 Sudeste 6 Sudeste 0 964.1 -0.3 89
2019-05-15 01:00:00 12.5 2 Sur 4 Sudoeste 0 964.4 0.4 87
2019-05-15 00:00:00 13.9 2 Sudoeste 5 Sudoeste 0 964.5 0.9 85
2019-05-14 23:00:00 15.7 3 Oeste 5 Oeste 0 964.4 1.2 79
2019-05-14 22:00:00 18.9 3 Oeste 7 Norte 0 964 1 66
2019-05-14 21:00:00 22.6 2 Nordeste 14 Norte 0 963.6 0.5 56
2019-05-14 20:00:00 25.2 4 Norte 19 Nordeste 0 963.2 -0.3 49
2019-05-14 19:00:00 28.5 4 Nordeste 16 Este 0 963 -0.9 45
2019-05-14 18:00:00 29.3 8 Nordeste 17 Este 0 963.1 -1.2 40
2019-05-14 17:00:00 29.3 7 Noroeste 15 Norte 0 963.5 -1.3 35
2019-05-14 16:00:00 28.7 6 Noroeste 14 Sudeste 0 963.9 -1.2 38
2019-05-14 15:00:00 27.4 5 Nordeste 14 Nordeste 0 964.3 -1.2 45
2019-05-14 14:00:00 25.5 6 Norte 11 Noroeste 0 964.8 -1 48
2019-05-14 13:00:00 23.6 5 Nordeste 10 Nordeste 0 965.1 -0.9 52
2019-05-14 12:00:00 21.1 4 Norte 9 Noroeste 0 965.5 -0.8 59
2019-05-14 11:00:00 17.5 3 Noroeste 8 Este 0 965.8 -0.4 68
2019-05-14 10:00:00 13.9 3 Nordeste 7 Este 0 966 0 77
2019-05-14 09:00:00 10.1 2 Este 4 Sudeste 0 966.3 0.3 89
2019-05-14 08:00:00 6 0 Calma 5 Sur 0 966.2 -0.2 96
2019-05-14 07:00:00 5.3 3 Sudoeste 5 Sudeste 0 966 -0.5 93
2019-05-14 06:00:00 5.7 3 Sudeste 5 Sudeste 0 966 -1 93
2019-05-14 05:00:00 6.3 4 Sudeste 7 Sudeste 0 966.4 -1 94
2019-05-14 04:00:00 6.8 3 Sudeste 4 Sur 0 966.5 -1.3 91
2019-05-14 03:00:00 7.5 4 Sudeste 6 Sudeste 0 967 -1 92
2019-05-14 02:00:00 8.4 2 Sur 4 Sur 0 967.4 -0.6 88
2019-05-14 01:00:00 9.7 0 Calma 4 Norte 0 967.8 -0.3 86
2019-05-14 00:00:00 10.5 0 Calma 9 Este 0 968 0.1 85
2019-05-13 23:00:00 11.4 3 Nordeste 11 Nordeste 0 968 0.2 82
2019-05-13 22:00:00 13 5 Nordeste 14 Nordeste 0 968.1 0.2 75
2019-05-13 21:00:00 15.6 6 Nordeste 23 Nordeste 0 967.9 -0.1 67
2019-05-13 20:00:00 18.7 9 Nordeste 22 Nordeste 0 967.8 -0.4 60
2019-05-13 19:00:00 20.6 12 Nordeste 24 Nordeste 0 967.9 -0.8 57
2019-05-13 18:00:00 21.9 10 Nordeste 24 Nordeste 0 968 -1.1 56
2019-05-13 17:00:00 23.2 7 Nordeste 24 Nordeste 0 968.2 -1.5 54
2019-05-13 16:00:00 22.8 10 Nordeste 23 Nordeste 0 968.7 -1.6 55
2019-05-13 15:00:00 23.6 6 Nordeste 19 Nordeste 0 969.1 -1.6 54
2019-05-13 14:00:00 22.4 9 Nordeste 18 Este 0 969.7 -1.4 52
2019-05-13 13:00:00 20.3 4 Norte 10 Nordeste 0 970.3 -1.1 63
2019-05-13 12:00:00 16.5 3 Este 8 Nordeste 0 970.7 -0.6 73
2019-05-13 11:00:00 11.3 3 Sur 7 Este 0 971.1 0 91
2019-05-13 10:00:00 9.2 4 Este 6 Este 0 971.4 0.5 95
2019-05-13 09:00:00 8.1 2 Oeste 5 Oeste 0 971.3 0.2 97
2019-05-13 08:00:00 7.8 3 Sudeste 8 Este 0 971.1 -0.1 97
2019-05-13 07:00:00 8.2 4 Sudeste 7 Sudeste 0 970.9 -0.3 97
2019-05-13 06:00:00 8.5 3 Sudeste 5 Sudeste 0 971.1 -0.5 97
2019-05-13 05:00:00 9.1 2 Sudeste 5 Sur 0 971.2 -0.9 97
2019-05-13 04:00:00 9.2 3 Sudeste 6 Este 0 971.2 -1 97
2019-05-13 03:00:00 8.7 3 Este 6 Sudeste 0 971.6 -0.6 96
2019-05-13 02:00:00 8.7 2 Sudoeste 4 Oeste 0 972.1 0.2 90
2019-05-13 01:00:00 9.9 0 Calma 4 Nordeste 0 972.2 0.7 89
2019-05-13 00:00:00 10.9 0 Calma 12 Nordeste 0 972.2 1 89
2019-05-12 23:00:00 11.5 4 Nordeste 14 Nordeste 0 971.9 1 87
2019-05-12 22:00:00 13.7 4 Nordeste 13 Este 0 971.5 0.6 79
2019-05-12 21:00:00 16.4 6 Nordeste 16 Nordeste 0 971.2 0.1 70
2019-05-12 20:00:00 19.2 6 Nordeste 23 Nordeste 0 970.9 -0.7 62
2019-05-12 19:00:00 20.5 9 Nordeste 24 Nordeste 0 970.9 -0.9 58
2019-05-12 18:00:00 22.4 7 Nordeste 20 Nordeste 0 971.1 -1.1 56
2019-05-12 17:00:00 22.9 10 Nordeste 23 Nordeste 0 971.6 -0.9 52
2019-05-12 16:00:00 23.2 11 Nordeste 23 Este 0 971.8 -1.1 52
2019-05-12 15:00:00 23.6 6 Nordeste 23 Nordeste 0 972.2 -0.9 53
2019-05-12 14:00:00 22.6 9 Nordeste 19 Nordeste 0 972.5 -0.9 49
2019-05-12 13:00:00 20.6 5 Norte 12 Este 0 972.9 -0.6 54
2019-05-12 12:00:00 18.3 4 Nordeste 10 Noroeste 0 973.1 -0.5 59
2019-05-12 11:00:00 15.2 4 Nordeste 9 Nordeste 0 973.4 -0.2 69
2019-05-12 10:00:00 12.3 3 Sudoeste 5 Nordeste 0 973.5 -0.1 81
2019-05-12 09:00:00 9.4 2 Este 6 Nordeste 0 973.6 -0.2 89
2019-05-12 08:00:00 6.2 3 Este 7 Este 0 973.6 -0.1 95
2019-05-12 07:00:00 6.2 2 Este 10 Este 0 973.6 0 93
2019-05-12 06:00:00 6.5 6 Este 11 Este 0 973.8 -0.1 96
2019-05-12 05:00:00 6.5 3 Nordeste 9 Nordeste 0 973.7 -0.7 95
2019-05-12 04:00:00 6.8 3 Nordeste 8 Nordeste 0 973.6 -0.8 95
2019-05-12 03:00:00 7.6 0 Calma 8 Este 0 973.9 -0.7 88
2019-05-12 02:00:00 8.5 5 Este 14 Nordeste 0 974.4 -0.1 93
2019-05-12 01:00:00 8.7 8 Nordeste 15 Este 0 974.4 0.2 95
2019-05-12 00:00:00 8.6 4 Nordeste 17 Nordeste 0 974.6 0.7 92
2019-05-11 23:00:00 9.2 6 Nordeste 17 Nordeste 0 974.5 1 88
2019-05-11 22:00:00 10.4 8 Nordeste 29 Nordeste 0 974.2 1 78
2019-05-11 21:00:00 12.8 11 Nordeste 28 Nordeste 0 973.9 0.8 70
2019-05-11 20:00:00 15.4 8 Nordeste 26 Nordeste 0 973.5 0.6 66
2019-05-11 19:00:00 17.9 8 Nordeste 27 Nordeste 0 973.2 0.2 58
2019-05-11 18:00:00 18.8 7 Norte 24 Este 0 973.1 0 54
2019-05-11 17:00:00 19.4 8 Nordeste 25 Este 0 972.9 -0.2 58
2019-05-11 16:00:00 20.1 12 Nordeste 23 Nordeste 0 973 -0.2 45
2019-05-11 15:00:00 19.7 8 Nordeste 21 Nordeste 0 973.1 -0.2 46
2019-05-11 14:00:00 18.3 7 Nordeste 20 Nordeste 0 973.1 -0.2 47
2019-05-11 13:00:00 16.9 4 Norte 15 Sudeste 0 973.2 0.2 53
2019-05-11 12:00:00 15.3 6 Este 14 Nordeste 0 973.3 1 57
2019-05-11 11:00:00 13.6 4 Este 14 Nordeste 0 973.3 1.5 64
2019-05-11 10:00:00 11.3 3 Norte 8 Noroeste 0 973 1.9 80
2019-05-11 09:00:00 10.4 3 Sudeste 5 Sur 0 972.3 1.5 89
2019-05-11 08:00:00 9 3 Sur 5 Sur 0 971.8 1.6 93
2019-05-11 07:00:00 8.3 4 Sur 8 Sur 0 971.1 1.2 95
2019-05-11 06:00:00 8.6 3 Sur 6 Sur 0 970.8 1.6 91
2019-05-11 05:00:00 10.2 0 Calma 5 Noroeste 0 970.2 1 88
2019-05-11 04:00:00 11.2 0 Calma 7 Noroeste 0 969.9 1.1 89
2019-05-11 03:00:00 11.3 3 Sudoeste 5 Sudoeste 0 969.2 0.7 90
2019-05-11 02:00:00 11.5 3 Oeste 6 Oeste 0 969.2 1.1 89
2019-05-11 01:00:00 11.8 2 Noroeste 7 Norte 0 968.8 1.5 89
2019-05-11 00:00:00 12 3 Noroeste 8 Norte 0 968.5 2.3 88
2019-05-10 23:00:00 12.5 3 Norte 11 Noroeste 0 968.1 2.7 87
2019-05-10 22:00:00 13.8 4 Oeste 26 Oeste 0 967.3 2.6 78
2019-05-10 21:00:00 15.5 13 Oeste 27 Oeste 0 966.2 1.9 68
2019-05-10 20:00:00 17.2 15 Oeste 29 Oeste 0 965.4 2 59
2019-05-10 19:00:00 18.9 18 Oeste 40 Oeste 0 964.7 1.7 53
2019-05-10 18:00:00 19.7 24 Oeste 42 Oeste 0 964.3 1.4 49
2019-05-10 17:00:00 20.4 23 Oeste 37 Oeste 0 963.4 0.9 52
2019-05-10 16:00:00 20.4 22 Sudoeste 39 Oeste 0 963 0.6 50
2019-05-10 15:00:00 19.6 23 Oeste 39 Oeste 0 962.9 1.5 55
2019-05-10 14:00:00 18.5 20 Sudoeste 42 Oeste 0 962.5 2.9 57
2019-05-10 13:00:00 17.6 30 Oeste 50 Oeste 0 962.4 3.3 60
2019-05-10 12:00:00 16.9 19 Sudoeste 36 Oeste 0 961.4 3.4 69
2019-05-10 11:00:00 14.6 7 Sudoeste 22 Oeste 0 959.6 1.9 82
2019-05-10 10:00:00 13.6 9 Sudoeste 28 Oeste 0 959.1 1.4 87
2019-05-10 09:00:00 14.2 10 Sudoeste 24 Sudoeste 0 958 0.3 93
2019-05-10 08:00:00 14.4 13 Sudoeste 30 Sudoeste 0 957.7 -0.1 91
2019-05-10 07:00:00 14.3 11 Sudoeste 30 Sudoeste 0.2 957.7 -0.4 95
2019-05-10 06:00:00 14.4 8 Sudoeste 21 Sudoeste 0 957.7 -0.3 95
2019-05-10 05:00:00 14.4 9 Sudoeste 22 Sudoeste 0 957.8 -0.2 94
2019-05-10 04:00:00 14.3 11 Sudoeste 28 Sudoeste 0.2 958.1 0.3 95
2019-05-10 03:00:00 14.4 10 Sudoeste 25 Sudoeste 0 958 0.8 95
2019-05-10 02:00:00 14.3 12 Sudoeste 23 Oeste 0.4 958 1 96
2019-05-10 01:00:00 14.3 10 Sudoeste 26 Sudoeste 0.2 957.8 1.4 96
2019-05-10 00:00:00 14.5 12 Sudoeste 23 Sudoeste 0.8 957.2 0.8 96
2019-05-09 23:00:00 14.6 10 Sudoeste 24 Sudoeste 1 957 0.7 95
2019-05-09 22:00:00 14.5 9 Sudoeste 19 Sudoeste 2.8 956.4 0.2 96
2019-05-09 21:00:00 14.1 9 Sudoeste 24 Sudoeste 4 956.4 0.1 96
2019-05-09 20:00:00 13.9 13 Sudoeste 30 Sudoeste 2.2 956.3 -0.6 95
2019-05-09 19:00:00 13.5 10 Sudoeste 33 Sur 2.4 956.2 -1.7 93
2019-05-09 18:00:00 14.1 13 Sudoeste 31 Sur 0 956.3 -2.4 84
2019-05-09 17:00:00 12.9 8 Sudoeste 29 Sudoeste 0 956.9 -3.2 80
2019-05-09 16:00:00 12.7 12 Sudoeste 26 Sudoeste 0 957.9 -2.3 74
2019-05-09 15:00:00 11.4 3 Sur 14 Sur 0 958.7 -1.3 79
2019-05-09 14:00:00 10.4 5 Sur 17 Sudoeste 0.8 960.1 0 82
2019-05-09 13:00:00 10.9 8 Sur 24 Sur 0 960.2 0.1 78
2019-05-09 12:00:00 11 7 Sudoeste 19 Sur 0 960 -0.3 76
2019-05-09 11:00:00 9.7 8 Sudoeste 23 Sur 0 960.1 -0.4 83
2019-05-09 10:00:00 8.7 7 Sur 20 Sudoeste 0 960.1 -0.6 84
2019-05-09 09:00:00 8.6 8 Sudoeste 19 Sudoeste 0 960.3 -- 83
2019-05-09 08:00:00 8.9 6 Sur 17 Sudoeste 0 960.5 -- 82
2019-05-09 07:00:00 8.4 -- -- -- -- -- 960.7 -0.2 81
2019-05-09 06:00:00 -- -- -- -- -- -- -- -- --
2019-05-09 05:00:00 -- -- -- -- -- -- -- -- --
2019-05-09 04:00:00 8 5 Sur 11 Sudeste 0 960.9 0.2 84
2019-05-09 03:00:00 9.1 6 Sudoeste 21 Oeste 0 961.1 0.1 83
2019-05-09 02:00:00 9.6 16 Sudoeste 27 Sudoeste 0 960.7 -0.1 80
2019-05-09 01:00:00 10 13 Sudoeste 27 Sudoeste 0 960.7 0.9 78
2019-05-09 00:00:00 9.9 10 Sudoeste 31 Sudoeste 0 961 1.5 76
2019-05-08 23:00:00 10.5 13 Sudoeste 30 Sudoeste 0 960.8 1.8 75
2019-05-08 22:00:00 10.9 22 Sudoeste 43 Sudoeste 0 959.8 1.3 71
2019-05-08 21:00:00 11.6 22 Sudoeste 47 Oeste 0 959.5 1.5 67
2019-05-08 20:00:00 12.2 26 Oeste 54 Sudoeste 0 959 0.9 63
2019-05-08 19:00:00 13.5 35 Oeste 64 Oeste 0 958.5 1.1 54
2019-05-08 18:00:00 12.5 31 Sudoeste 54 Oeste 0 958 1.3 70
2019-05-08 17:00:00 11.8 19 Oeste 58 Oeste 0.2 958.1 1.1 84
2019-05-08 16:00:00 12.7 20 Sudoeste 58 Sudoeste 0 957.4 0.7 67
2019-05-08 15:00:00 14.2 33 Oeste 60 Sudoeste 0.2 956.7 0.3 59
2019-05-08 14:00:00 11.7 18 Sudoeste 49 Sudoeste 0 957 1 77
2019-05-08 13:00:00 12.1 30 Sudoeste 49 Oeste 0.2 956.7 1.2 74
2019-05-08 12:00:00 11.1 14 Oeste 53 Sudoeste 0 956.4 0.8 78
2019-05-08 11:00:00 12 20 Sudoeste 45 Sudoeste 0 956 0.4 72
2019-05-08 10:00:00 11.1 13 Sudoeste 37 Sudoeste 0 955.5 0.1 80
2019-05-08 09:00:00 10 9 Sudoeste 30 Sudoeste 0 955.6 0 86
2019-05-08 08:00:00 10.3 14 Sudoeste 31 Sudoeste 0 955.6 0.4 82
2019-05-08 07:00:00 10.1 9 Sudoeste 32 Sudoeste 0 955.4 0.6 85
2019-05-08 06:00:00 10.6 17 Sudoeste 38 Sudoeste 0 955.6 0.7 82
2019-05-08 05:00:00 11.5 15 Sudoeste 41 Sudoeste 0.4 955.2 -0.8 89
2019-05-08 04:00:00 11.7 15 Sudoeste 37 Sur 1.8 954.8 -1.7 95
2019-05-08 03:00:00 11.2 12 Sudoeste 35 Sudoeste 1 954.9 -2.4 93
2019-05-08 02:00:00 10.9 13 Sudoeste 34 Sur 1 956 -1.7 90
2019-05-08 01:00:00 11.3 14 Sudoeste 37 Sur 0.4 956.5 -1.6 86
2019-05-08 00:00:00 11.4 14 Sudoeste 41 Sudoeste 0.4 957.3 -0.6 82
2019-05-07 23:00:00 13.3 15 Sudoeste 48 Sur 0 957.7 -0.2 66
2019-05-07 22:00:00 14.4 22 Sudoeste 55 Oeste 0 958.1 -0.5 53
2019-05-07 21:00:00 15.7 27 Sudoeste 54 Oeste 0 957.9 -0.8 56
2019-05-07 20:00:00 16.2 24 Sudoeste 55 Oeste 0 957.9 -2.3 58
2019-05-07 19:00:00 16.6 19 Sudoeste 49 Sudoeste 0 958.6 -2.1 63
2019-05-07 18:00:00 16.9 21 Sudoeste 44 Oeste 0 958.7 -1.6 62
2019-05-07 17:00:00 16.3 14 Sudoeste 40 Sudoeste 0 960.2 -1.6 64
2019-05-07 16:00:00 16.3 13 Sudoeste 44 Sudoeste 0 960.7 -1.7 66
2019-05-07 15:00:00 16.2 13 Sur 31 Sudoeste 0 960.3 -2.7 62
2019-05-07 14:00:00 15.2 13 Sudoeste 33 Sudoeste 0 961.8 -1.1 66
2019-05-07 13:00:00 15 14 Sudoeste 32 Sudoeste 0 962.4 -0.7 68
2019-05-07 12:00:00 14.6 15 Sudoeste 30 Sudoeste 0 963 0.1 70
2019-05-07 11:00:00 15.5 10 Sudoeste 26 Sudoeste 0 962.9 -0.2 78
2019-05-07 10:00:00 13.9 11 Sudoeste 24 Sudoeste 0 963.1 -0.1 85
2019-05-07 09:00:00 13.2 7 Sur 19 Sur 0 962.9 -0.7 89
2019-05-07 08:00:00 12.5 7 Sur 21 Sur 0 963.1 -1 92
2019-05-07 07:00:00 12.4 8 Sudoeste 22 Sur 0 963.2 -1.3 92
2019-05-07 06:00:00 12.5 7 Sudoeste 20 Sur 0.4 963.6 -1.6 94
2019-05-07 05:00:00 12.3 8 Sudoeste 17 Sudoeste 0 964.1 -1.7 93
2019-05-07 04:00:00 12.5 4 Sudoeste 12 Sudoeste 0 964.5 -1.3 91
2019-05-07 03:00:00 12.3 4 Sudoeste 12 Sudoeste 0 965.2 -1.1 93
2019-05-07 02:00:00 12.3 4 Sudoeste 10 Sudoeste 0 965.8 -0.9 93
2019-05-07 01:00:00 12.8 0 Calma 5 Sur 0.2 965.8 -0.2 90
2019-05-07 00:00:00 13.2 2 Sudoeste 4 Sudoeste 0.2 966.3 0.7 86
2019-05-06 23:00:00 14.1 2 Norte 8 Norte 0 966.7 0.8 77
2019-05-06 22:00:00 15.5 3 Oeste 8 Oeste 0 966 0.3 66
2019-05-06 21:00:00 16.3 4 Sudoeste 11 Noroeste 0 965.6 0.2 63
2019-05-06 20:00:00 17 5 Noroeste 18 Noroeste 0 965.9 0.8 57
2019-05-06 19:00:00 19.1 7 Oeste 20 Noroeste 0 965.7 0.1 45
2019-05-06 18:00:00 20.5 9 Oeste 23 Oeste 0 965.4 -0.2 46
2019-05-06 17:00:00 19.5 8 Oeste 23 Sudoeste 0 965.1 -0.8 50
2019-05-06 16:00:00 20.4 10 Oeste 23 Oeste 0 965.6 -0.7 50
2019-05-06 15:00:00 19.9 10 Sudoeste 22 Noroeste 0 965.6 -1.1 53
2019-05-06 14:00:00 18.2 6 Oeste 14 Noroeste 0 965.9 -0.6 65
2019-05-06 13:00:00 15.6 5 Oeste 10 Noroeste 0 966.3 -0.2 69
2019-05-06 12:00:00 13.1 4 Norte 9 Sudoeste 0 966.7 0.5 78
2019-05-06 11:00:00 10.4 4 Sudoeste 9 Noroeste 0 966.5 0.8 90
2019-05-06 10:00:00 8 4 Este 6 Este 0 966.5 1.1 97
2019-05-06 09:00:00 5.6 3 Este 5 Nordeste 0 966.2 0.5 98
2019-05-06 08:00:00 3.6 3 Sudeste 5 Sudeste 0 965.7 0.3 97
2019-05-06 07:00:00 3.1 0 Calma 5 Sudeste 0 965.4 -0.2 92
2019-05-06 06:00:00 3.4 2 Sudeste 4 Sur 0 965.7 -0.2 93
2019-05-06 05:00:00 3.9 3 Sur 4 Sur 0 965.4 -0.5 91
2019-05-06 04:00:00 4.1 0 Calma 6 Sudeste 0 965.6 -0.3 92
2019-05-06 03:00:00 4.6 3 Sur 4 Sur 0 965.9 -0.1 89
2019-05-06 02:00:00 5.2 2 Sur 5 Sudeste 0 965.9 0.2 88
2019-05-06 01:00:00 6.1 3 Sur 6 Sudeste 0 965.9 0.6 88
2019-05-06 00:00:00 7 2 Sudoeste 6 Sudoeste 0 966 1.1 85
2019-05-05 23:00:00 8.6 0 Calma 8 Nordeste 0 965.7 0.9 81
2019-05-05 22:00:00 10 4 Nordeste 18 Este 0 965.3 0.5 75
2019-05-05 21:00:00 12.4 4 Nordeste 19 Nordeste 0 964.9 0 68
2019-05-05 20:00:00 14.9 5 Nordeste 20 Nordeste 0 964.8 -0.3 60
2019-05-05 19:00:00 17 10 Nordeste 21 Nordeste 0 964.8 -0.5 56
2019-05-05 18:00:00 17.3 8 Nordeste 24 Nordeste 0 964.9 -0.6 54
2019-05-05 17:00:00 19.1 9 Nordeste 22 Nordeste 0 965.1 -0.6 49
2019-05-05 16:00:00 19.1 11 Nordeste 22 Este 0 965.3 -0.7 50
2019-05-05 15:00:00 19.4 8 Nordeste 24 Nordeste 0 965.5 -0.9 51
2019-05-05 14:00:00 18.6 6 Nordeste 22 Este 0 965.7 -0.7 53
2019-05-05 13:00:00 16.8 9 Este 19 Este 0 966 -0.6 57
2019-05-05 12:00:00 14.9 4 Nordeste 17 Nordeste 0 966.4 -0.1 63
2019-05-05 11:00:00 12.4 8 Este 17 Este 0 966.4 0.4 67
2019-05-05 10:00:00 10.2 7 Nordeste 20 Nordeste 0 966.6 1 80
2019-05-05 09:00:00 7.4 8 Nordeste 12 Nordeste 0 966.5 1.1 87
2019-05-05 08:00:00 4.7 4 Este 13 Este 0 966 0.3 93
2019-05-05 07:00:00 5.1 3 Este 9 Nordeste 0 965.6 -0.3 89
2019-05-05 06:00:00 5.7 5 Nordeste 17 Este 0 965.4 -0.8 92
2019-05-05 05:00:00 6.4 7 Nordeste 17 Nordeste 0 965.7 -0.9 92
2019-05-05 04:00:00 6.9 9 Nordeste 16 Este 0 965.9 -0.8 94
2019-05-05 03:00:00 7 4 Nordeste 15 Nordeste 0 966.2 -0.7 93
2019-05-05 02:00:00 7.5 3 Nordeste 13 Nordeste 0 966.6 -0.1 92
2019-05-05 01:00:00 7.7 7 Nordeste 18 Nordeste 0 966.7 0.3 92
2019-05-05 00:00:00 8 7 Nordeste 18 Nordeste 0 966.9 0.7 89
2019-05-04 23:00:00 8.6 9 Nordeste 17 Este 0 966.7 0.9 87
2019-05-04 22:00:00 9.5 5 Nordeste 29 Este 0 966.4 0.7 83
2019-05-04 21:00:00 10.7 13 Nordeste 31 Nordeste 0 966.2 0.9 77
2019-05-04 20:00:00 12.4 14 Nordeste 35 Nordeste 0 965.8 0.8 69
2019-05-04 19:00:00 13.9 19 Nordeste 35 Este 0 965.7 1 66
2019-05-04 18:00:00 15.6 14 Nordeste 33 Este 0 965.3 0.6 61
2019-05-04 17:00:00 17.7 10 Nordeste 32 Este 0 965 0.1 56
2019-05-04 16:00:00 19 11 Nordeste 26 Nordeste 0 964.7 -0.3 52
2019-05-04 15:00:00 19 7 Nordeste 23 Nordeste 0 964.7 -0.5 50
2019-05-04 14:00:00 18.1 6 Nordeste 19 Nordeste 0 964.9 -0.2 54
2019-05-04 13:00:00 16.8 6 Nordeste 18 Este 0 965 0.1 59
2019-05-04 12:00:00 14.7 8 Nordeste 21 Nordeste 0 965.2 0.5 63
2019-05-04 11:00:00 12.2 11 Este 22 Este 0 965.1 0.7 70
2019-05-04 10:00:00 9.4 11 Nordeste 20 Nordeste 0 964.9 0.7 83
2019-05-04 09:00:00 5.1 0 Calma 3 Sur 0 964.7 0.7 98
2019-05-04 08:00:00 2.5 2 Sur 5 Este 0 964.4 0.3 96
2019-05-04 07:00:00 2.4 2 Sur 4 Sudeste 0 964.2 0.1 92
2019-05-04 06:00:00 2.9 2 Sudoeste 6 Sudeste 0 964 -0.2 93
2019-05-04 05:00:00 3.3 2 Sudeste 6 Este 0 964.1 -0.3 90
2019-05-04 04:00:00 4.3 2 Sur 7 Sudeste 0 964.1 -0.3 90
2019-05-04 03:00:00 5.5 2 Sudeste 5 Sudeste 0 964.2 -0.5 93
2019-05-04 02:00:00 6.6 0 Calma 4 Nordeste 0 964.4 -0.1 90
2019-05-04 01:00:00 7.7 2 Este 13 Nordeste 0 964.4 0.3 90
2019-05-04 00:00:00 8 3 Nordeste 12 Nordeste 0 964.7 0.7 90
2019-05-03 23:00:00 8 7 Nordeste 20 Nordeste 0 964.5 0.4 87
2019-05-03 22:00:00 9.2 2 Norte 13 Nordeste 0 964.1 0.1 78
2019-05-03 21:00:00 11.2 6 Nordeste 28 Nordeste 0 964 0.4 69
2019-05-03 20:00:00 13.3 7 Nordeste 30 Este 0 964.1 0.6 62
2019-05-03 19:00:00 14.9 10 Nordeste 26 Este 0 964 -0.1 62
2019-05-03 18:00:00 16.5 9 Nordeste 25 Este 0 963.6 -1 58
2019-05-03 17:00:00 16.9 10 Nordeste 26 Nordeste 0 963.5 -1.4 55
2019-05-03 16:00:00 16.5 11 Nordeste 23 Nordeste 0 964.1 -1.1 52
2019-05-03 15:00:00 15.6 11 Nordeste 29 Este 0 964.6 -0.8 55
2019-05-03 14:00:00 14.7 9 Nordeste 29 Este 0 964.9 -0.7 58
2019-05-03 13:00:00 14.6 15 Este 27 Nordeste 0 965.2 -0.6 57
2019-05-03 12:00:00 12.6 11 Nordeste 26 Nordeste 0 965.4 -0.2 63
2019-05-03 11:00:00 11.7 14 Este 27 Nordeste 0 965.6 0.4 63
2019-05-03 10:00:00 10.3 13 Nordeste 26 Este 0 965.8 0.9 73
2019-05-03 09:00:00 8.4 6 Nordeste 12 Este 0 965.6 0.4 82
2019-05-03 08:00:00 6 5 Nordeste 14 Nordeste 0 965.2 0 94
2019-05-03 07:00:00 4.8 3 Nordeste 10 Nordeste 0 964.9 -0.5 92
2019-05-03 06:00:00 5.5 4 Este 11 Este 0 965.2 -0.4 93
2019-05-03 05:00:00 6.4 8 Nordeste 32 Nordeste 0 965.2 -0.8 91
2019-05-03 04:00:00 5.9 4 Nordeste 22 Este 0 965.4 -0.9 92
2019-05-03 03:00:00 6.1 14 Nordeste 22 Nordeste 0 965.6 -1 93
2019-05-03 02:00:00 6 8 Nordeste 14 Nordeste 0 966 -0.9 92
2019-05-03 01:00:00 6.3 4 Nordeste 13 Nordeste 0 966.3 -0.4 90
2019-05-03 00:00:00 7.2 5 Nordeste 22 Este 0 966.6 0.4 87
2019-05-02 23:00:00 7.8 11 Nordeste 31 Nordeste 0 966.9 1 84
2019-05-02 22:00:00 8 9 Nordeste 24 Nordeste 0 966.7 0.6 84
2019-05-02 21:00:00 9.4 6 Nordeste 32 Nordeste 0 966.2 0.5 79
2019-05-02 20:00:00 10.7 11 Nordeste 29 Nordeste 0 965.9 0.1 72
2019-05-02 19:00:00 12.2 15 Nordeste 33 Este 0 966.1 0 68
2019-05-02 18:00:00 13.4 11 Nordeste 39 Nordeste 0 965.7 -0.7 66
2019-05-02 17:00:00 14.5 14 Nordeste 32 Este 0 965.8 -1.1 63
2019-05-02 16:00:00 15.8 9 Nordeste 32 Nordeste 0 966.1 -0.8 61
2019-05-02 15:00:00 15.5 9 Nordeste 33 Este 0 966.4 -1 63
2019-05-02 14:00:00 14.5 10 Nordeste 39 Nordeste 0 966.9 -0.3 66
2019-05-02 13:00:00 13.5 14 Nordeste 32 Nordeste 0 966.9 -0.2 68
2019-05-02 12:00:00 10.9 15 Nordeste 38 Nordeste 0 967.4 0.6 78
2019-05-02 11:00:00 11.9 14 Nordeste 37 Este 0 967.2 0.8 77
2019-05-02 10:00:00 11.3 10 Nordeste 32 Este 0 967.1 0.6 75
2019-05-02 09:00:00 10.1 8 Nordeste 22 Nordeste 0 966.8 0.5 81
2019-05-02 08:00:00 7.8 8 Nordeste 19 Nordeste 0 966.4 0.1 91
2019-05-02 07:00:00 7.2 9 Nordeste 17 Nordeste 0 966.5 -0.1 92
2019-05-02 06:00:00 7.1 7 Nordeste 15 Nordeste 0 966.3 -0.5 92
2019-05-02 05:00:00 7.9 5 Nordeste 15 Este 0 966.3 -0.9 89
2019-05-02 04:00:00 8.7 7 Nordeste 20 Este 0 966.6 -0.7 87
2019-05-02 03:00:00 8.5 8 Nordeste 17 Nordeste 0 966.8 -0.8 88
2019-05-02 02:00:00 8 5 Nordeste 16 Este 0 967.2 -0.4 90
2019-05-02 01:00:00 8.6 7 Nordeste 23 Nordeste 0 967.3 -0.1 87
2019-05-02 00:00:00 9.3 8 Nordeste 22 Este 0 967.6 0.7 86
2019-05-01 23:00:00 9.6 8 Nordeste 21 Este 0 967.6 1 84
2019-05-01 22:00:00 9.9 10 Nordeste 27 Este 0 967.4 1.1 77
2019-05-01 21:00:00 10.8 10 Nordeste 30 Nordeste 0 966.9 1 80
2019-05-01 20:00:00 11.9 12 Nordeste 33 Nordeste 0 966.6 0.7 75
2019-05-01 19:00:00 13.3 10 Nordeste 35 Nordeste 0 966.3 0.3 68
2019-05-01 18:00:00 15.5 10 Nordeste 37 Nordeste 0 965.9 -0.3 57
2019-05-01 17:00:00 15.3 14 Nordeste 35 Este 0 965.9 -0.5 59
2019-05-01 16:00:00 15.3 12 Nordeste 31 Nordeste 0 966 -0.6 61
2019-05-01 15:00:00 15.5 12 Nordeste 33 Este 0 966.2 -0.4 65
2019-05-01 14:00:00 14.5 14 Nordeste 31 Nordeste 0 966.4 0.2 67
2019-05-01 13:00:00 13.8 13 Nordeste 28 Este 0 966.6 0.5 66
2019-05-01 12:00:00 12.8 12 Nordeste 28 Este 0 966.6 1.1 74
2019-05-01 11:00:00 11.6 11 Nordeste 24 Nordeste 0 966.2 1.2 82
2019-05-01 10:00:00 10.6 8 Nordeste 17 Nordeste 0 966.1 1.6 89
2019-05-01 09:00:00 10.4 3 Nordeste 9 Nordeste 0 965.5 0.7 92
2019-05-01 08:00:00 10.1 3 Norte 8 Este 0 965 0.2 92
2019-05-01 07:00:00 9.9 5 Este 8 Nordeste 0 964.5 -0.5 91
2019-05-01 06:00:00 10.2 0 Calma 5 Nordeste 0 964.8 -0.7 92
2019-05-01 05:00:00 10.1 0 Calma 7 Norte 0 964.8 -1.3 93
2019-05-01 04:00:00 10 3 Norte 7 Norte 0 965 -1.3 92
2019-05-01 03:00:00 9.9 3 Nordeste 14 Nordeste 0 965.5 -1 90
2019-05-01 02:00:00 9.7 8 Nordeste 17 Este 0 966.1 -0.5 90
2019-05-01 01:00:00 10 4 Norte 10 Noroeste 0 966.3 0 90
2019-05-01 00:00:00 10.3 3 Nordeste 15 Nordeste 0 966.5 0.7 91
2019-04-30 23:00:00 10.5 10 Nordeste 19 Nordeste 0 966.6 1 90
2019-04-30 22:00:00 10.9 5 Nordeste 14 Este 0 966.3 1 91
2019-04-30 21:00:00 12 5 Nordeste 20 Nordeste 0 965.8 0.8 85
2019-04-30 20:00:00 14.9 10 Nordeste 23 Nordeste 0 965.6 0.2 74
2019-04-30 19:00:00 18.1 11 Nordeste 22 Nordeste 0 965.3 -0.8 67
2019-04-30 18:00:00 21.4 10 Nordeste 18 Nordeste 0 965 -1.6 55
2019-04-30 17:00:00 22 7 Nordeste 18 Nordeste 0 965.4 -1.9 45
2019-04-30 16:00:00 21 6 Noroeste 17 Norte 0 966.1 -2 53
2019-04-30 15:00:00 18.5 7 Noroeste 15 Norte 0 966.6 -1.6 62
2019-04-30 14:00:00 15.2 4 Norte 13 Este 0 967.3 -0.7 73
2019-04-30 13:00:00 12.2 6 Norte 13 Noroeste 0 968.1 0.1 85
2019-04-30 12:00:00 10.1 3 Norte 8 Norte 0 968.2 0.3 92
2019-04-30 11:00:00 8.9 3 Nordeste 6 Noroeste 0 968 0.4 96
2019-04-30 10:00:00 8.5 2 Sudoeste 8 Nordeste 0 968 0.8 97
2019-04-30 09:00:00 7.8 3 Este 7 Este 0 967.9 0.9 97
2019-04-30 08:00:00 7.3 2 Este 6 Este 0 967.6 0.7 98
2019-04-30 07:00:00 7 2 Nordeste 5 Nordeste 0 967.2 0.2 97
2019-04-30 06:00:00 7.2 3 Nordeste 5 Nordeste 0 967 -0.2 97
2019-04-30 05:00:00 7.4 0 Calma 5 Noroeste 0 966.9 -0.7 97
2019-04-30 04:00:00 7 2 Sur 4 Sur 0 967 -0.5 95
2019-04-30 03:00:00 7.1 3 Sudeste 8 Sudeste 0 967.2 -0.4 91
2019-04-30 02:00:00 8 4 Sur 7 Sudeste 0 967.6 0 89
2019-04-30 01:00:00 9.1 3 Sur 5 Sur 0 967.5 0.6 87
2019-04-30 00:00:00 10.7 3 Sudeste 5 Sudeste 0 967.6 1.5 84
2019-04-29 23:00:00 12.5 2 Sur 4 Sur 0 967.6 2.1 79
2019-04-29 22:00:00 15 3 Oeste 10 Nordeste 0 966.9 1.7 71
2019-04-29 21:00:00 17.4 5 Nordeste 18 Este 0 966.1 1.3 62
2019-04-29 20:00:00 19.8 9 Nordeste 19 Nordeste 0 965.5 1 55
2019-04-29 19:00:00 21.6 11 Nordeste 27 Nordeste 0 965.2 0.3 55
2019-04-29 18:00:00 23.8 7 Nordeste 25 Nordeste 0 964.8 -0.5 56
2019-04-29 17:00:00 24.9 7 Oeste 17 Norte 0 964.5 -1.5 41
2019-04-29 16:00:00 24.8 6 Noroeste 16 Este 0 964.9 -1.7 40
2019-04-29 15:00:00 24 5 Norte 17 Noroeste 0 965.3 -1.8 47
2019-04-29 14:00:00 22.3 6 Noroeste 13 Noroeste 0 966 -1.4 53
2019-04-29 13:00:00 19.5 4 Noroeste 9 Norte 0 966.6 -1.2 66
2019-04-29 12:00:00 14.6 4 Noroeste 10 Nordeste 0 967.1 -0.6 80
2019-04-29 11:00:00 9.8 3 Noroeste 7 Norte 0 967.4 0 91
2019-04-29 10:00:00 7.2 3 Norte 5 Norte 0 967.8 0.7 96
2019-04-29 09:00:00 5.9 2 Oeste 4 Sudoeste 0 967.7 0.5 96
2019-04-29 08:00:00 5.1 0 Calma 3 Sudeste 0 967.4 0 96
2019-04-29 07:00:00 5.3 0 Calma 3 Este 0 967.1 -0.6 96
2019-04-29 06:00:00 5.9 2 Sudeste 3 Sudeste 0 967.2 -0.9 96
2019-04-29 05:00:00 6.6 2 Sudeste 4 Este 0 967.4 -1.1 95
2019-04-29 04:00:00 7 0 Calma 3 Oeste 0 967.7 -1.1 95
2019-04-29 03:00:00 7.3 0 Calma 4 Sudeste 0 968.1 -0.9 95
2019-04-29 02:00:00 7.4 2 Sur 4 Sur 0 968.5 -0.5 93
2019-04-29 01:00:00 8 2 Sudoeste 3 Sudoeste 0 968.8 0 89
2019-04-29 00:00:00 9.1 0 Calma 5 Oeste 0 969 0.5 89
2019-04-28 23:00:00 10.2 3 Oeste 8 Este 0 969 0.5 87
2019-04-28 22:00:00 11.5 3 Norte 10 Norte 0 968.8 0.2 84
2019-04-28 21:00:00 14.5 3 Norte 14 Este 0 968.5 -0.2 75
2019-04-28 20:00:00 16.4 5 Nordeste 18 Este 0 968.5 -0.4 71
2019-04-28 19:00:00 19.5 6 Nordeste 22 Nordeste 0 968.6 -0.8 61
2019-04-28 18:00:00 20.6 14 Nordeste 25 Nordeste 0 968.7 -1.2 56
2019-04-28 17:00:00 22.6 9 Nordeste 19 Este 0 968.9 -2 51
2019-04-28 16:00:00 23 6 Norte 19 Norte 0 969.4 -2.2 48
2019-04-28 15:00:00 21.5 5 Nordeste 14 Nordeste 0 969.9 -2.2 52
2019-04-28 14:00:00 19.8 4 Noroeste 16 Este 0 970.9 -1.6 53
2019-04-28 13:00:00 17.9 5 Nordeste 10 Norte 0 971.6 -1.2 57
2019-04-28 12:00:00 15.6 5 Nordeste 12 Nordeste 0 972.1 -0.8 60
2019-04-28 11:00:00 13.4 5 Este 13 Este 0 972.5 -0.3 64
2019-04-28 10:00:00 11.2 6 Este 15 Nordeste 0 972.8 0 75
2019-04-28 09:00:00 8.5 7 Nordeste 11 Nordeste 0 972.9 -0.3 87
2019-04-28 08:00:00 7.6 3 Nordeste 12 Nordeste 0 972.8 -0.9 90
2019-04-28 07:00:00 8.4 5 Nordeste 13 Este 0 972.8 -1.3 90
2019-04-28 06:00:00 8.7 6 Nordeste 13 Este 0 973.2 -1.4 91
2019-04-28 05:00:00 8.6 4 Nordeste 9 Nordeste 0 973.7 -1.5 93
2019-04-28 04:00:00 8.4 0 Calma 6 Norte 0 974.1 -1.6 92
2019-04-28 03:00:00 8.4 0 Calma 4 Nordeste 0 974.6 -1.5 93
2019-04-28 02:00:00 8.5 2 Nordeste 12 Nordeste 0 975.2 -1.1 92
2019-04-28 01:00:00 9.3 5 Nordeste 13 Norte 0 975.7 -0.2 91
2019-04-28 00:00:00 9.2 9 Nordeste 23 Nordeste 0 976.1 0.6 91
2019-04-27 23:00:00 9.3 9 Nordeste 27 Nordeste 0 976.3 1.2 90
2019-04-27 22:00:00 10.4 6 Nordeste 24 Nordeste 0 975.9 0.9 88
2019-04-27 21:00:00 12.1 12 Nordeste 25 Nordeste 0 975.5 0.4 81
2019-04-27 20:00:00 15.1 10 Nordeste 23 Nordeste 0 975.1 -0.3 71
2019-04-27 19:00:00 18.6 8 Noroeste 18 Noroeste 0 975 -0.7 48
2019-04-27 18:00:00 18.7 6 Norte 19 Noroeste 0 975.1 -1.1 50
2019-04-27 17:00:00 18.4 7 Norte 20 Nordeste 0 975.4 -1.1 52
2019-04-27 16:00:00 18.6 5 Norte 19 Noroeste 0 975.7 -1.1 57
2019-04-27 15:00:00 16.8 5 Noroeste 15 Norte 0 976.2 -0.6 56
2019-04-27 14:00:00 16 7 Noroeste 14 Noroeste 0 976.5 -0.2 62
2019-04-27 13:00:00 14.4 7 Sudoeste 17 Sudoeste 0 976.8 0.3 68
2019-04-27 12:00:00 12.2 7 Sudoeste 14 Oeste 0 976.8 0.5 77
2019-04-27 11:00:00 11 5 Sudoeste 16 Sudoeste 0 976.7 0.6 78
2019-04-27 10:00:00 9.6 6 Sur 17 Sudoeste 0 976.5 0.8 84
2019-04-27 09:00:00 8.9 6 Sur 16 Sudoeste 0 976.3 0.5 85
2019-04-27 08:00:00 8.6 4 Sur 14 Sudoeste 0 976.1 0.2 82
2019-04-27 07:00:00 8.5 7 Sudoeste 16 Sur 0 975.7 -0.1 80
2019-04-27 06:00:00 8.6 6 Sudoeste 16 Sur 0 975.8 -0.4 80
2019-04-27 05:00:00 8.6 6 Sudoeste 17 Sudoeste 0 975.9 -0.8 82
2019-04-27 04:00:00 8.5 7 Sudoeste 20 Sudoeste 0 975.8 -0.9 82
2019-04-27 03:00:00 8.6 8 Sudoeste 15 Sudoeste 0 976.2 -0.6 81
2019-04-27 02:00:00 8.7 6 Sudoeste 14 Sur 0 976.7 0.5 79
2019-04-27 01:00:00 8.7 6 Sudoeste 15 Sudoeste 0 976.7 0.9 79
2019-04-27 00:00:00 9 10 Oeste 19 Oeste 0 976.8 1.6 81
2019-04-26 23:00:00 9.3 10 Oeste 26 Sudoeste 0 976.2 1.5 79
2019-04-26 22:00:00 9.9 12 Sudoeste 19 Oeste 0 975.8 1.6 74
2019-04-26 21:00:00 10.3 11 Oeste 19 Sudoeste 0 975.2 1.6 72
2019-04-26 20:00:00 11.1 14 Oeste 25 Oeste 0 974.7 1.1 66
2019-04-26 19:00:00 11.9 16 Oeste 29 Oeste 0 974.2 0.4 65
2019-04-26 18:00:00 12.4 16 Oeste 30 Oeste 0 973.6 0.2 65
2019-04-26 17:00:00 12 13 Oeste 32 Oeste 0 973.6 0.5 64
2019-04-26 16:00:00 11.7 16 Oeste 29 Oeste 0 973.8 0.9 66
2019-04-26 15:00:00 11.8 14 Oeste 25 Sudoeste 0 973.4 0.7 65
2019-04-26 14:00:00 12.3 10 Oeste 26 Oeste 0 973.1 0.8 62
2019-04-26 13:00:00 11.6 13 Oeste 33 Sudoeste 0 972.9 1.3 63
2019-04-26 12:00:00 11.4 15 Oeste 29 Oeste 0 972.7 2.1 66
2019-04-26 11:00:00 9.9 15 Oeste 29 Sudoeste 0 972.3 2.7 75
2019-04-26 10:00:00 7.6 10 Sudoeste 24 Sudoeste 0 971.6 2.8 87
2019-04-26 09:00:00 6.8 12 Sudoeste 19 Sudoeste 0 970.6 2.3 91
2019-04-26 08:00:00 5.8 8 Sudoeste 14 Sudoeste 0 969.6 2 93
2019-04-26 07:00:00 5.8 6 Sudoeste 13 Sudoeste 0 968.8 1.5 95
2019-04-26 06:00:00 6.4 9 Sudoeste 18 Oeste 0 968.3 1.4 94
2019-04-26 05:00:00 6.5 9 Sudoeste 19 Sudoeste 0 967.6 1.5 95
2019-04-26 04:00:00 7 10 Sudoeste 20 Oeste 0.2 967.3 2.3 92
2019-04-26 03:00:00 7.5 11 Sudoeste 21 Oeste 0.2 966.9 3 94
2019-04-26 02:00:00 7.6 8 Sudoeste 24 Oeste 1.4 966.1 3.6 95
2019-04-26 01:00:00 7.8 13 Oeste 29 Oeste 0.4 965 4.3 93
2019-04-26 00:00:00 8 12 Oeste 28 Sudoeste 1 963.9 4.5 94
2019-04-25 23:00:00 8 11 Oeste 30 Oeste 0.8 962.5 4.1 95
2019-04-25 22:00:00 8.1 16 Sudoeste 31 Oeste 0.8 960.7 3 93
2019-04-25 21:00:00 7.7 12 Sudoeste 27 Sudoeste 0.6 959.4 2.8 94
2019-04-25 20:00:00 7.3 10 Sudoeste 28 Sudoeste 2.2 958.4 2.6 93
2019-04-25 19:00:00 7.2 8 Oeste 36 Noroeste 0.6 957.7 3.1 90
2019-04-25 18:00:00 8.3 17 Sudoeste 36 Sudoeste 0.4 956.6 2.6 86
2019-04-25 17:00:00 7.8 18 Sudoeste 41 Sudoeste 0.2 955.8 2 88
2019-04-25 16:00:00 6.2 20 Sudoeste 39 Oeste 4.2 954.6 1.1 89
2019-04-25 15:00:00 7.4 16 Sudoeste 44 Sudoeste 1.2 954 0.6 86
2019-04-25 14:00:00 8.1 15 Sudoeste 44 Sudoeste 1.2 953.8 1.1 84
2019-04-25 13:00:00 8.7 18 Sudoeste 36 Sudoeste 1 953.5 1.2 85
2019-04-25 12:00:00 7.6 15 Sudoeste 43 Sudoeste 0.8 953.4 1.4 89
2019-04-25 11:00:00 8.7 14 Sudoeste 32 Sudoeste 0 952.7 1.6 84
2019-04-25 10:00:00 6.4 13 Sudoeste 28 Sur 0.4 952.3 2.1 90
2019-04-25 09:00:00 5.1 12 Sudoeste 25 Sudoeste 1.6 952 2 93
2019-04-25 08:00:00 4.9 12 Sudoeste 31 Sur 1 951.1 1.6 92
2019-04-25 07:00:00 4.7 10 Sudoeste 31 Sur 0.2 950.2 0.7 91
2019-04-25 06:00:00 4.7 14 Sudoeste 31 Sudoeste 0.2 950 1.1 91
2019-04-25 05:00:00 4.5 12 Sur 29 Sur 1.2 949.5 0.4 92
2019-04-25 04:00:00 5 11 Sudoeste 38 Sudoeste 2.6 949.5 0.7 92
2019-04-25 03:00:00 5 9 Sur 30 Sudoeste 1 948.9 0.3 93
2019-04-25 02:00:00 5.3 13 Sudoeste 31 Sur 0.4 949.1 1 91
2019-04-25 01:00:00 5.1 8 Sudoeste 24 Sudoeste 0.4 948.8 1.2 92
2019-04-25 00:00:00 5.1 12 Sudoeste 34 Sudoeste 2.4 948.6 1.9 91
2019-04-24 23:00:00 5 10 Sudoeste 40 Oeste 1.8 948.1 2.4 90
2019-04-24 22:00:00 7 9 Oeste 23 Noroeste 0 947.6 2.4 83
2019-04-24 21:00:00 8.1 12 Sudoeste 27 Sudoeste 0 946.7 2.3 83
2019-04-24 20:00:00 8.5 15 Oeste 28 Oeste 0.8 945.7 1.7 88
2019-04-24 19:00:00 7.7 15 Sudoeste 51 Sudoeste 2.4 945.2 1.7 91
2019-04-24 18:00:00 9 18 Sudoeste 42 Sudoeste 0.4 944.4 1.5 81
2019-04-24 17:00:00 8.7 12 Oeste 40 Oeste 1.2 944 0.6 90
2019-04-24 16:00:00 10.3 19 Oeste 50 Sudoeste 0.2 943.5 1.5 77
2019-04-24 15:00:00 10.1 13 Sudoeste 51 Sudoeste 0 942.9 1.2 76
2019-04-24 14:00:00 9.2 20 Sudoeste 45 Oeste 1.8 943.4 2.2 88
2019-04-24 13:00:00 10 14 Sudoeste 39 Sur 0.6 942 0.3 87
2019-04-24 12:00:00 8.5 13 Sur 43 Sudoeste 0 941.7 -0.4 87
2019-04-24 11:00:00 7.6 15 Sur 32 Sur 0.2 941.2 -1 84
2019-04-24 10:00:00 6.4 12 Sur 34 Sudoeste 0 941.7 -1.2 84
2019-04-24 09:00:00 5.9 9 Sur 28 Sur 0 942.1 -2 84
2019-04-24 08:00:00 5.1 6 Sur 22 Sur 0.2 942.2 -2.5 86
2019-04-24 07:00:00 5 6 Sur 22 Sur 0 942.9 -2.4 87
2019-04-24 06:00:00 5.2 8 Sur 25 Sudoeste 0 944.1 -2.4 86
2019-04-24 05:00:00 5.1 6 Sudoeste 22 Sudoeste 0 944.7 -2.4 85
2019-04-24 04:00:00 4.8 7 Sur 26 Sur 0 945.3 -2.2 85
2019-04-24 03:00:00 4.9 7 Sur 21 Sur 0 946.5 -1 87
2019-04-24 02:00:00 5.4 8 Sudoeste 23 Sur 0 947.1 -0.3 88
2019-04-24 01:00:00 5.7 7 Sur 17 Sudoeste 0 947.5 0.5 88
2019-04-24 00:00:00 5.9 9 Sudoeste 25 Sudoeste 0.2 947.5 1.3 87
2019-04-23 23:00:00 6.8 9 Sudoeste 23 Sudoeste 0 947.4 1.7 75
2019-04-23 22:00:00 7.2 9 Sudoeste 18 Sudoeste 0 947 1.4 74
2019-04-23 21:00:00 8.9 12 Sudoeste 30 Oeste 0 946.2 0.7 66
2019-04-23 20:00:00 10.3 11 Sudoeste 26 Sudoeste 0 945.7 0.3 62
2019-04-23 19:00:00 9.8 12 Oeste 31 Sudoeste 0 945.6 -0.4 71
2019-04-23 18:00:00 8.2 3 Oeste 31 Oeste 0.2 945.5 -0.1 80
2019-04-23 17:00:00 9.8 13 Sudoeste 22 Sudoeste 0 945.4 0.8 75
2019-04-23 16:00:00 6.3 7 Sudoeste 21 Oeste 0.6 946 2.6 90
2019-04-23 15:00:00 4.5 14 Sudoeste 36 Oeste 0.8 945.6 2.2 90
2019-04-23 14:00:00 6.7 23 Oeste 43 Sudoeste 0 944.6 1.6 83
2019-04-23 13:00:00 10.3 14 Sudoeste 38 Oeste 0 943.4 0.4 66
2019-04-23 12:00:00 10.8 16 Sudoeste 37 Sur 0 943.4 0.5 66
2019-04-23 11:00:00 9.2 15 Sudoeste 32 Sur 0 943 0.5 69
2019-04-23 10:00:00 8.2 10 Sudoeste 27 Sudoeste 0 943 0.7 78
2019-04-23 09:00:00 6.5 8 Sur 18 Sudoeste 0 942.9 0.4 87
2019-04-23 08:00:00 6 8 Sudoeste 19 Sudoeste 0 942.5 0 88
2019-04-23 07:00:00 6.4 6 Sur 21 Sudoeste 0 942.3 -0.4 90
2019-04-23 06:00:00 6.6 9 Sudoeste 21 Sudoeste 0 942.5 -0.9 91
2019-04-23 05:00:00 6.9 8 Sudoeste 14 Sudeste 0.2 942.5 -1.6 91
2019-04-23 04:00:00 7.1 7 Sur 19 Sur 0 942.7 -1.5 92
2019-04-23 03:00:00 7.2 9 Sur 18 Sur 0.8 943.4 -1 91
2019-04-23 02:00:00 7.8 4 Sur 17 Sudoeste 0.2 944.1 -0.2 90
2019-04-23 01:00:00 8.5 2 Sudoeste 17 Sudoeste 0.4 944.2 0 91
2019-04-23 00:00:00 9 14 Sudoeste 23 Sudoeste 1 944.4 0.5 89